createdAt,value
2023-04-18T00:00:58.714Z,462.7500
2023-04-18T00:02:02.663Z,462.1667
2023-04-18T00:03:06.802Z,461.7500
2023-04-18T00:04:11.045Z,462.9167
2023-04-18T00:05:15.275Z,464.8333
2023-04-18T00:06:19.172Z,467.5000
2023-04-18T00:07:23.086Z,465.7500
2023-04-18T00:08:26.981Z,466.2500
2023-04-18T00:09:30.925Z,460.3333
2023-04-18T00:10:35.049Z,466.4167
2023-04-18T00:11:38.956Z,463.8333
2023-04-18T00:12:43.312Z,461.5833
2023-04-18T00:13:47.241Z,459.6667
2023-04-18T00:14:51.124Z,460.7500
2023-04-18T00:15:55.054Z,461.7500
2023-04-18T00:16:58.988Z,461.4167
2023-04-18T00:18:03.328Z,461.6667
2023-04-18T00:19:07.280Z,461.0833
2023-04-18T00:20:11.450Z,463.5833
2023-04-18T00:21:15.331Z,465.7500
2023-04-18T00:22:19.247Z,462.8333
2023-04-18T00:23:23.155Z,461.0833
2023-04-18T00:24:27.054Z,460.4167
2023-04-18T00:25:30.972Z,460.0833
2023-04-18T00:26:34.872Z,459.5000
2023-04-18T00:27:39.049Z,459.3333
2023-04-18T00:28:42.926Z,460.7500
2023-04-18T00:29:47.072Z,458.8333
2023-04-18T00:30:50.988Z,458.5000
2023-04-18T00:31:54.874Z,462.0833
2023-04-18T00:32:58.807Z,462.7500
2023-04-18T00:34:02.716Z,462.8333
2023-04-18T00:35:06.947Z,462.1667
2023-04-18T00:36:10.849Z,463.6667
2023-04-18T00:37:14.771Z,462.5833
2023-04-18T00:38:18.720Z,462.5000
2023-04-18T00:39:22.617Z,463.2500
2023-04-18T00:40:26.781Z,462.4167
2023-04-18T00:41:30.709Z,462.5000
2023-04-18T00:42:34.913Z,463.1667
2023-04-18T00:43:38.989Z,461.7500
2023-04-18T00:44:42.899Z,462.0833
2023-04-18T00:45:46.828Z,463.6667
2023-04-18T00:46:50.722Z,464.7500
2023-04-18T00:47:54.656Z,461.5000
2023-04-18T00:48:58.586Z,461.6667
2023-04-18T00:50:02.492Z,463.2500
2023-04-18T00:51:06.400Z,460.8333
2023-04-18T00:52:10.305Z,458.6667
2023-04-18T00:53:14.215Z,458.8333
2023-04-18T00:54:18.125Z,458.4167
2023-04-18T00:55:22.247Z,456.9167
2023-04-18T00:56:26.167Z,459.0000
2023-04-18T00:57:30.286Z,461.2500
2023-04-18T00:58:34.196Z,464.2500
2023-04-18T00:59:38.107Z,464.2500
2023-04-18T01:00:42.017Z,463.5000
2023-04-18T01:01:45.926Z,463.9167
2023-04-18T01:02:50.302Z,466.8333
2023-04-18T01:03:54.318Z,465.6667
2023-04-18T01:04:58.520Z,466.4167
2023-04-18T01:06:02.413Z,464.2500
2023-04-18T01:07:06.369Z,465.2500
2023-04-18T01:08:10.238Z,461.8333
2023-04-18T01:09:14.161Z,463.0833
2023-04-18T01:10:18.384Z,461.9167
2023-04-18T01:11:22.275Z,462.0833
2023-04-18T01:12:26.186Z,462.5000
2023-04-18T01:13:30.081Z,461.1667
2023-04-18T01:14:33.987Z,460.4167
2023-04-18T01:15:37.948Z,461.0000
2023-04-18T01:16:41.814Z,462.7500
2023-04-18T01:17:45.729Z,464.3333
2023-04-18T01:18:49.657Z,466.6667
2023-04-18T01:19:53.817Z,461.0833
2023-04-18T01:20:57.730Z,461.8333
2023-04-18T01:22:01.622Z,459.5000
2023-04-18T01:23:05.528Z,460.8333
2023-04-18T01:24:09.429Z,460.9167
2023-04-18T01:25:13.334Z,462.0833
2023-04-18T01:26:17.269Z,460.5833
2023-04-18T01:27:21.442Z,461.0000
2023-04-18T01:28:25.337Z,457.3333
2023-04-18T01:29:29.480Z,459.5000
2023-04-18T01:30:33.387Z,463.5000
2023-04-18T01:31:37.346Z,464.8333
2023-04-18T01:32:41.293Z,465.1667
2023-04-18T01:33:45.187Z,463.7500
2023-04-18T01:34:49.114Z,462.5000
2023-04-18T01:35:53.029Z,463.5000
2023-04-18T01:36:56.922Z,462.6667
2023-04-18T01:38:00.827Z,463.5000
2023-04-18T01:39:04.741Z,460.0833
2023-04-18T01:40:08.979Z,460.7500
2023-04-18T01:41:12.859Z,460.0000
2023-04-18T01:42:16.773Z,460.2500
2023-04-18T01:43:20.684Z,461.5000
2023-04-18T01:44:24.594Z,462.5000
2023-04-18T01:45:28.511Z,462.2500
2023-04-18T01:46:32.473Z,462.8333
2023-04-18T01:47:36.558Z,459.5000
2023-04-18T01:48:40.483Z,460.0833
2023-04-18T01:49:44.374Z,464.8333
2023-04-18T01:50:48.287Z,463.4167
2023-04-18T01:51:52.181Z,463.2500
2023-04-18T01:52:56.107Z,462.9167
2023-04-18T01:54:00.020Z,460.7500
2023-04-18T01:55:04.146Z,458.2500
2023-04-18T01:56:08.070Z,461.2500
2023-04-18T01:57:12.005Z,464.2500
2023-04-18T01:58:15.909Z,463.5000
2023-04-18T01:59:19.810Z,463.7500
2023-04-18T02:00:23.934Z,463.5833
2023-04-18T02:01:27.888Z,461.3333
2023-04-18T02:02:32.087Z,459.5833
2023-04-18T02:03:36.259Z,460.4167
2023-04-18T02:04:40.236Z,459.7500
2023-04-18T02:05:44.171Z,458.0833
2023-04-18T02:06:48.079Z,461.5833
2023-04-18T02:07:52.008Z,464.0833
2023-04-18T02:08:55.934Z,460.8333
2023-04-18T02:10:00.071Z,459.8333
2023-04-18T02:11:03.934Z,459.0833
2023-04-18T02:12:08.084Z,462.2500
2023-04-18T02:13:11.989Z,460.4167
2023-04-18T02:14:15.928Z,461.1667
2023-04-18T02:15:19.888Z,457.2500
2023-04-18T02:16:23.831Z,458.4167
2023-04-18T02:17:27.740Z,458.5000
2023-04-18T02:18:31.607Z,460.6667
2023-04-18T02:19:35.765Z,460.7500
2023-04-18T02:20:39.651Z,462.1667
2023-04-18T02:21:43.557Z,458.3333
2023-04-18T02:22:47.466Z,456.5833
2023-04-18T02:23:51.383Z,459.5000
2023-04-18T02:24:55.532Z,458.2500
2023-04-18T02:25:59.436Z,456.1667
2023-04-18T02:27:03.329Z,459.8333
2023-04-18T02:28:07.229Z,463.8333
2023-04-18T02:29:11.134Z,467.1667
2023-04-18T02:30:15.029Z,471.1667
2023-04-18T02:31:18.931Z,469.9167
2023-04-18T02:32:22.850Z,465.0833
2023-04-18T02:33:26.745Z,463.2500
2023-04-18T02:34:30.956Z,464.8333
2023-04-18T02:35:34.829Z,461.5000
2023-04-18T02:36:38.711Z,459.5833
2023-04-18T02:37:42.608Z,460.1667
2023-04-18T02:38:46.493Z,461.4167
2023-04-18T02:39:50.396Z,460.8333
2023-04-18T02:40:54.308Z,459.8333
2023-04-18T02:41:58.436Z,460.8333
2023-04-18T02:43:02.332Z,462.6667
2023-04-18T02:44:06.237Z,461.1667
2023-04-18T02:45:10.377Z,460.5833
2023-04-18T02:46:14.323Z,460.0833
2023-04-18T02:47:18.207Z,457.9167
2023-04-18T02:48:22.114Z,457.3333
2023-04-18T02:49:25.979Z,457.7500
2023-04-18T02:50:29.887Z,457.3333
2023-04-18T02:51:33.814Z,456.1667
2023-04-18T02:52:37.722Z,456.2500
2023-04-18T02:53:41.658Z,457.3333
2023-04-18T02:54:45.741Z,460.6667
2023-04-18T02:55:49.626Z,462.8333
2023-04-18T02:56:53.740Z,458.2500
2023-04-18T02:57:57.624Z,463.1667
2023-04-18T02:59:01.519Z,462.0833
2023-04-18T03:00:05.381Z,459.1667
2023-04-18T03:01:09.313Z,457.7500
2023-04-18T03:02:13.466Z,459.4167
2023-04-18T03:03:17.391Z,460.0833
2023-04-18T03:04:21.310Z,462.0833
2023-04-18T03:05:25.187Z,460.0000
2023-04-18T03:06:29.074Z,459.7500
2023-04-18T03:07:33.009Z,458.8333
2023-04-18T03:08:36.920Z,461.0000
2023-04-18T03:09:41.040Z,461.3333
2023-04-18T03:10:44.920Z,464.2500
2023-04-18T03:11:48.914Z,459.1667
2023-04-18T03:12:52.804Z,457.5000
2023-04-18T03:13:56.722Z,461.7500
2023-04-18T03:15:00.624Z,463.8333
2023-04-18T03:16:04.629Z,462.7500
2023-04-18T03:17:08.761Z,459.0833
2023-04-18T03:18:12.681Z,459.8333
2023-04-18T03:19:16.831Z,462.4167
2023-04-18T03:20:20.733Z,464.8333
2023-04-18T03:21:24.624Z,464.4167
2023-04-18T03:22:28.525Z,467.5000
2023-04-18T03:23:32.407Z,459.9167
2023-04-18T03:24:36.521Z,457.1667
2023-04-18T03:25:40.402Z,456.6667
2023-04-18T03:26:44.524Z,458.4167
2023-04-18T03:27:48.407Z,458.7500
2023-04-18T03:28:52.301Z,460.5833
2023-04-18T03:29:56.185Z,461.6667
2023-04-18T03:31:00.144Z,461.9167
2023-04-18T03:32:04.055Z,460.3333
2023-04-18T03:33:07.953Z,458.5000
2023-04-18T03:34:12.120Z,457.5000
2023-04-18T03:35:16.217Z,459.2500
2023-04-18T03:36:20.138Z,459.6667
2023-04-18T03:37:24.046Z,461.5000
2023-04-18T03:38:27.944Z,461.7500
2023-04-18T03:39:32.078Z,459.4167
2023-04-18T03:40:35.966Z,464.8333
2023-04-18T03:41:39.835Z,459.6667
2023-04-18T03:42:43.724Z,456.0000
2023-04-18T03:43:47.594Z,456.5833
2023-04-18T03:44:51.498Z,455.1667
2023-04-18T03:45:55.411Z,456.3333
2023-04-18T03:46:59.614Z,455.9167
2023-04-18T03:48:03.502Z,458.4167
2023-04-18T03:49:07.560Z,459.5000
2023-04-18T03:50:11.439Z,458.9167
2023-04-18T03:51:15.316Z,457.1667
2023-04-18T03:52:19.198Z,457.6667
2023-04-18T03:53:23.081Z,455.0000
2023-04-18T03:54:27.281Z,449.4167
2023-04-18T03:55:31.172Z,453.8333
2023-04-18T03:56:35.793Z,461.5833
2023-04-18T03:57:41.275Z,460.5000
2023-04-18T03:58:39.983Z,459.8182
2023-04-18T03:59:45.567Z,459.9167
2023-04-18T04:00:45.274Z,458.4546
2023-04-18T04:01:49.488Z,458.5833
2023-04-18T04:02:53.520Z,461.6667
2023-04-18T04:03:57.559Z,457.8333
2023-04-18T04:05:01.519Z,462.5000
2023-04-18T04:06:05.445Z,457.9167
2023-04-18T04:07:09.571Z,452.5000
2023-04-18T04:08:13.475Z,459.6667
2023-04-18T04:09:17.374Z,463.4167
2023-04-18T04:10:21.282Z,461.4167
2023-04-18T04:11:25.197Z,459.3333
2023-04-18T04:12:29.156Z,456.0833
2023-04-18T04:13:33.036Z,456.6667
2023-04-18T04:14:37.035Z,458.3333
2023-04-18T04:15:40.928Z,462.0833
2023-04-18T04:16:45.027Z,459.0833
2023-04-18T04:17:48.976Z,458.1667
2023-04-18T04:18:52.865Z,458.2500
2023-04-18T04:19:56.748Z,457.0000
2023-04-18T04:21:00.660Z,461.7500
2023-04-18T04:22:04.558Z,460.9167
2023-04-18T04:23:08.467Z,457.9167
2023-04-18T04:24:12.534Z,462.4167
2023-04-18T04:25:16.546Z,463.9167
2023-04-18T04:26:20.460Z,465.2500
2023-04-18T04:27:24.383Z,463.5833
2023-04-18T04:28:28.272Z,460.8333
2023-04-18T04:29:32.423Z,461.5833
2023-04-18T04:30:36.313Z,464.7500
2023-04-18T04:31:40.472Z,465.5000
2023-04-18T04:32:44.375Z,458.8333
2023-04-18T04:33:48.242Z,459.7500
2023-04-18T04:34:52.121Z,461.4167
2023-04-18T04:35:56.024Z,462.0000
2023-04-18T04:36:59.914Z,460.1667
2023-04-18T04:38:03.813Z,459.9167
2023-04-18T04:39:07.938Z,461.8333
2023-04-18T04:40:11.847Z,460.7500
2023-04-18T04:41:15.709Z,460.8333
2023-04-18T04:42:19.588Z,460.1667
2023-04-18T04:43:23.488Z,460.4167
2023-04-18T04:44:27.700Z,459.8333
2023-04-18T04:45:31.612Z,460.1667
2023-04-18T04:46:35.773Z,462.0000
2023-04-18T04:47:39.739Z,465.0000
2023-04-18T04:48:43.649Z,466.5833
2023-04-18T04:49:47.493Z,465.1667
2023-04-18T04:50:51.376Z,464.2500
2023-04-18T04:51:55.285Z,463.8333
2023-04-18T04:52:59.185Z,464.8333
2023-04-18T04:54:03.109Z,466.2500
2023-04-18T04:55:06.988Z,465.5000
2023-04-18T04:56:10.859Z,464.9167
2023-04-18T04:57:14.768Z,464.4167
2023-04-18T04:58:18.685Z,464.5833
2023-04-18T04:59:22.989Z,462.6667
2023-04-18T05:00:26.910Z,465.1667
2023-04-18T05:01:31.061Z,467.5000
2023-04-18T05:02:35.050Z,466.5000
2023-04-18T05:03:39.438Z,471.6667
2023-04-18T05:04:43.431Z,468.2500
2023-04-18T05:05:47.275Z,465.0000
2023-04-18T05:06:51.264Z,465.5000
2023-04-18T05:07:55.153Z,469.7500
2023-04-18T05:08:59.043Z,472.6667
2023-04-18T05:10:02.969Z,470.3333
2023-04-18T05:11:06.863Z,468.1667
2023-04-18T05:12:11.012Z,464.0000
2023-04-18T05:13:14.915Z,466.6667
2023-04-18T05:14:19.025Z,468.3333
2023-04-18T05:15:22.914Z,468.2500
2023-04-18T05:16:26.872Z,470.2500
2023-04-18T05:17:30.789Z,471.7500
2023-04-18T05:18:35.092Z,471.5833
2023-04-18T05:19:39.019Z,470.9167
2023-04-18T05:20:42.901Z,474.2500
2023-04-18T05:21:46.779Z,476.2500
2023-04-18T05:22:50.686Z,477.1667
2023-04-18T05:23:54.867Z,478.3333
2023-04-18T05:24:58.749Z,477.5833
2023-04-18T05:26:02.678Z,477.4167
2023-04-18T05:27:06.592Z,476.2500
2023-04-18T05:28:10.471Z,475.9167
2023-04-18T05:29:14.347Z,474.9167
2023-04-18T05:30:18.264Z,475.0000
2023-04-18T05:31:22.201Z,480.0833
2023-04-18T05:32:26.057Z,483.6667
2023-04-18T05:33:29.953Z,484.1667
2023-04-18T05:34:33.839Z,482.6667
2023-04-18T05:35:37.745Z,484.6667
2023-04-18T05:36:41.658Z,487.7500
2023-04-18T05:37:45.541Z,488.1667
2023-04-18T05:38:49.456Z,488.8333
2023-04-18T05:39:53.343Z,494.2500
2023-04-18T05:40:57.221Z,489.6667
2023-04-18T05:42:01.367Z,494.2500
2023-04-18T05:43:05.269Z,492.1667
2023-04-18T05:44:09.186Z,490.8333
2023-04-18T05:45:13.086Z,489.9167
2023-04-18T05:46:17.300Z,490.7500
2023-04-18T05:47:21.275Z,490.7500
2023-04-18T05:48:25.188Z,490.8333
2023-04-18T05:49:29.063Z,495.5000
2023-04-18T05:50:32.958Z,492.7500
2023-04-18T05:51:37.083Z,493.9167
2023-04-18T05:52:40.984Z,493.9167
2023-04-18T05:53:44.855Z,490.8333
2023-04-18T05:54:48.757Z,489.2500
2023-04-18T05:55:52.635Z,500.0000
2023-04-18T05:56:56.528Z,504.3333
2023-04-18T05:58:00.437Z,503.2500
2023-04-18T05:59:04.587Z,501.6667
2023-04-18T06:00:08.476Z,500.8333
2023-04-18T06:01:12.407Z,500.6667
2023-04-18T06:02:16.379Z,498.5000
2023-04-18T06:03:20.600Z,500.3333
2023-04-18T06:04:24.670Z,505.5000
2023-04-18T06:05:28.899Z,502.7500
2023-04-18T06:06:33.239Z,501.8333
2023-04-18T06:07:37.132Z,501.0833
2023-04-18T06:08:41.055Z,501.0833
2023-04-18T06:09:44.970Z,499.7500
2023-04-18T06:10:48.885Z,500.5000
2023-04-18T06:11:52.828Z,507.5000
2023-04-18T06:12:56.704Z,510.6667
2023-04-18T06:14:00.863Z,510.0833
2023-04-18T06:15:04.762Z,511.0000
2023-04-18T06:16:08.878Z,512.0833
2023-04-18T06:17:12.859Z,515.3333
2023-04-18T06:18:16.738Z,520.6667
2023-04-18T06:19:20.651Z,521.7500
2023-04-18T06:20:24.544Z,524.6667
2023-04-18T06:21:28.436Z,522.5000
2023-04-18T06:22:32.326Z,520.3333
2023-04-18T06:23:36.454Z,523.5000
2023-04-18T06:24:40.345Z,519.3333
2023-04-18T06:25:44.225Z,519.6667
2023-04-18T06:26:48.391Z,526.4167
2023-04-18T06:27:52.270Z,529.5000
2023-04-18T06:28:56.189Z,525.7500
2023-04-18T06:30:00.165Z,528.0833
2023-04-18T06:31:04.081Z,532.9167
2023-04-18T06:32:07.964Z,536.9167
2023-04-18T06:33:11.821Z,555.0000
2023-04-18T06:34:15.905Z,581.9167
2023-04-18T06:35:19.968Z,592.0000
2023-04-18T06:36:24.102Z,593.0000
2023-04-18T06:37:27.995Z,577.6667
2023-04-18T06:38:31.875Z,574.2500
2023-04-18T06:39:35.799Z,574.4167
2023-04-18T06:40:39.738Z,570.9167
2023-04-18T06:41:43.649Z,570.5833
2023-04-18T06:42:47.563Z,582.6667
2023-04-18T06:44:02.851Z,584.9167
2023-04-18T06:44:55.947Z,584.9091
2023-04-18T06:45:59.944Z,582.4167
2023-04-18T06:47:03.845Z,569.0000
2023-04-18T06:48:07.820Z,565.3333
2023-04-18T06:49:11.694Z,570.6667
2023-04-18T06:50:15.579Z,587.1667
2023-04-18T06:51:19.483Z,591.5000
2023-04-18T06:52:23.948Z,578.9167
2023-04-18T06:53:27.818Z,560.0833
2023-04-18T06:54:31.718Z,569.4167
2023-04-18T06:55:35.629Z,570.2500
2023-04-18T06:56:39.565Z,558.1667
2023-04-18T06:57:43.463Z,558.0000
2023-04-18T06:58:47.370Z,591.2500
2023-04-18T06:59:51.261Z,599.9167
2023-04-18T07:00:55.190Z,604.9167
2023-04-18T07:01:59.087Z,605.1667
2023-04-18T07:03:03.101Z,598.0833
2023-04-18T07:04:07.166Z,598.5833
2023-04-18T07:05:11.106Z,611.5833
2023-04-18T07:06:14.995Z,624.0000
2023-04-18T07:07:18.934Z,633.0000
2023-04-18T07:08:22.906Z,639.4167
2023-04-18T07:09:26.860Z,629.4167
2023-04-18T07:10:30.774Z,616.3333
2023-04-18T07:11:34.926Z,613.6667
2023-04-18T07:12:38.833Z,610.7500
2023-04-18T07:13:42.973Z,625.2500
2023-04-18T07:14:46.918Z,628.4167
2023-04-18T07:15:50.813Z,612.1667
2023-04-18T07:16:54.774Z,602.2500
2023-04-18T07:17:58.803Z,611.1667
2023-04-18T07:19:02.704Z,621.3333
2023-04-18T07:20:06.619Z,633.0000
2023-04-18T07:21:10.610Z,646.2500
2023-04-18T07:22:14.531Z,645.5000
2023-04-18T07:23:18.456Z,619.0833
2023-04-18T07:24:22.392Z,616.4167
2023-04-18T07:25:26.310Z,627.0833
2023-04-18T07:26:30.241Z,637.9167
2023-04-18T07:27:34.151Z,644.9167
2023-04-18T07:28:38.401Z,642.0833
2023-04-18T07:29:42.285Z,636.2500
2023-04-18T07:30:46.294Z,634.7500
2023-04-18T07:31:50.216Z,632.7500
2023-04-18T07:32:54.189Z,623.8333
2023-04-18T07:33:58.130Z,615.5833
2023-04-18T07:35:02.157Z,635.5833
2023-04-18T07:36:06.088Z,630.8333
2023-04-18T07:37:10.015Z,622.5833
2023-04-18T07:38:13.963Z,641.5000
2023-04-18T07:39:17.858Z,652.5000
2023-04-18T07:40:21.837Z,660.5833
2023-04-18T07:41:25.730Z,657.3333
2023-04-18T07:42:29.642Z,654.7500
2023-04-18T07:43:33.546Z,651.5833
2023-04-18T07:44:37.509Z,649.6667
2023-04-18T07:45:41.408Z,652.3333
2023-04-18T07:46:45.411Z,643.0833
2023-04-18T07:47:49.388Z,639.7500
2023-04-18T07:48:53.282Z,647.2500
2023-04-18T07:49:57.269Z,649.7500
2023-04-18T07:51:01.187Z,646.9167
2023-04-18T07:52:05.123Z,641.9167
2023-04-18T07:53:09.292Z,636.0000
2023-04-18T07:54:13.242Z,635.3333
2023-04-18T07:55:17.170Z,639.2500
2023-04-18T07:56:21.097Z,641.4167
2023-04-18T07:57:25.019Z,636.2500
2023-04-18T07:58:28.956Z,634.4167
2023-04-18T07:59:32.871Z,638.5000
2023-04-18T08:00:36.827Z,634.1667
2023-04-18T08:01:40.799Z,631.5000
2023-04-18T08:02:44.814Z,638.9167
2023-04-18T08:03:48.868Z,642.6667
2023-04-18T08:04:53.054Z,647.4167
2023-04-18T08:05:57.126Z,645.7500
2023-04-18T08:07:01.070Z,649.7500
2023-04-18T08:08:05.014Z,649.0000
2023-04-18T08:09:08.919Z,647.0000
2023-04-18T08:10:13.107Z,640.4167
2023-04-18T08:11:17.010Z,634.0833
2023-04-18T08:12:20.940Z,628.8333
2023-04-18T08:13:24.873Z,630.4167
2023-04-18T08:14:28.848Z,634.9167
2023-04-18T08:15:33.050Z,642.1667
2023-04-18T08:16:37.002Z,634.2500
2023-04-18T08:17:40.979Z,634.9167
2023-04-18T08:18:44.906Z,630.3333
2023-04-18T08:19:48.859Z,624.8333
2023-04-18T08:20:52.817Z,628.8333
2023-04-18T08:21:56.886Z,638.7500
2023-04-18T08:23:07.323Z,636.1667
2023-04-18T08:24:05.406Z,633.6364
2023-04-18T08:25:09.505Z,633.7500
2023-04-18T08:26:13.426Z,649.5833
2023-04-18T08:27:17.367Z,657.3333
2023-04-18T08:28:21.536Z,656.9167
2023-04-18T08:29:25.446Z,649.7500
2023-04-18T08:30:29.429Z,643.3333
2023-04-18T08:31:33.436Z,634.9167
2023-04-18T08:32:37.507Z,619.2500
2023-04-18T08:33:41.453Z,618.9167
2023-04-18T08:34:45.372Z,615.5833
2023-04-18T08:35:49.334Z,613.8333
2023-04-18T08:36:53.312Z,616.1667
2023-04-18T08:37:57.311Z,616.5000
2023-04-18T08:39:01.236Z,613.5833
2023-04-18T08:40:05.207Z,620.4167
2023-04-18T08:41:09.169Z,627.8333
2023-04-18T08:42:13.082Z,623.0000
2023-04-18T08:43:17.048Z,621.5000
2023-04-18T08:44:21.046Z,619.5000
2023-04-18T08:45:25.016Z,618.8333
2023-04-18T08:46:29.261Z,617.5000
2023-04-18T08:47:33.189Z,616.0833
2023-04-18T08:48:37.228Z,619.5833
2023-04-18T08:49:41.161Z,628.0000
2023-04-18T08:50:45.185Z,630.2500
2023-04-18T08:51:49.057Z,636.6667
2023-04-18T08:52:52.993Z,632.3333
2023-04-18T08:53:56.925Z,634.1667
2023-04-18T08:55:01.006Z,631.7500
2023-04-18T08:56:04.935Z,632.0000
2023-04-18T08:57:09.009Z,631.0833
2023-04-18T08:58:13.015Z,634.9167
2023-04-18T08:59:16.993Z,637.8333
2023-04-18T09:00:21.005Z,645.5000
2023-04-18T09:01:24.966Z,644.5000
2023-04-18T09:02:28.920Z,641.5000
2023-04-18T09:03:32.870Z,645.5833
2023-04-18T09:04:36.959Z,647.9167
2023-04-18T09:05:41.186Z,645.6667
2023-04-18T09:06:46.050Z,642.0000
2023-04-18T09:07:49.951Z,643.0833
2023-04-18T09:08:53.845Z,647.4167
2023-04-18T09:09:53.969Z,643.5455
2023-04-18T09:10:57.860Z,640.6667
2023-04-18T09:12:01.790Z,635.0000
2023-04-18T09:13:05.699Z,634.8333
2023-04-18T09:14:09.629Z,638.5833
2023-04-18T09:15:13.606Z,635.0833
2023-04-18T09:16:17.561Z,633.3333
2023-04-18T09:17:21.522Z,627.0000
2023-04-18T09:18:25.715Z,625.0833
2023-04-18T09:19:29.644Z,628.4167
2023-04-18T09:20:33.585Z,636.3333
2023-04-18T09:21:37.492Z,641.2500
2023-04-18T09:22:41.406Z,648.5833
2023-04-18T09:23:45.336Z,643.7500
2023-04-18T09:24:49.224Z,634.4167
2023-04-18T09:25:53.154Z,633.9167
2023-04-18T09:26:57.098Z,634.4167
2023-04-18T09:28:01.273Z,636.4167
2023-04-18T09:29:05.358Z,625.3333
2023-04-18T09:30:09.272Z,617.1667
2023-04-18T09:31:13.306Z,613.9167
2023-04-18T09:32:17.314Z,613.5833
2023-04-18T09:33:21.211Z,603.3333
2023-04-18T09:34:25.213Z,590.5000
2023-04-18T09:35:29.103Z,589.6667
2023-04-18T09:36:33.105Z,590.5833
2023-04-18T09:37:37.010Z,597.1667
2023-04-18T09:38:41.112Z,609.1667
2023-04-18T09:39:45.146Z,605.5000
2023-04-18T09:40:49.081Z,594.5833
2023-04-18T09:41:52.990Z,585.0000
2023-04-18T09:42:56.961Z,587.2500
2023-04-18T09:44:00.875Z,591.3333
2023-04-18T09:45:05.121Z,590.0000
2023-04-18T09:46:09.079Z,590.0833
2023-04-18T09:47:13.080Z,594.4167
2023-04-18T09:48:16.973Z,601.8333
2023-04-18T09:49:20.884Z,606.7500
2023-04-18T09:50:24.810Z,604.4167
2023-04-18T09:51:28.783Z,598.9167
2023-04-18T09:52:32.859Z,605.9167
2023-04-18T09:53:36.786Z,605.6667
2023-04-18T09:54:40.666Z,585.7500
2023-04-18T09:55:44.596Z,570.7500
2023-04-18T09:56:48.523Z,566.9167
2023-04-18T09:57:52.704Z,560.0000
2023-04-18T09:58:56.660Z,562.3333
2023-04-18T10:00:00.592Z,568.4167
2023-04-18T10:01:04.513Z,569.9167
2023-04-18T10:02:08.582Z,567.7500
2023-04-18T10:03:12.603Z,564.5833
2023-04-18T10:04:16.971Z,567.0000
2023-04-18T10:05:21.434Z,562.8333
2023-04-18T10:06:25.413Z,558.8333
2023-04-18T10:07:29.306Z,561.1667
2023-04-18T10:08:33.209Z,565.1667
2023-04-18T10:09:37.126Z,570.1667
2023-04-18T10:10:41.096Z,568.9167
2023-04-18T10:11:44.988Z,581.6667
2023-04-18T10:12:48.989Z,594.6667
2023-04-18T10:13:53.035Z,622.9167
2023-04-18T10:14:56.970Z,629.4167
2023-04-18T10:16:00.884Z,627.0000
2023-04-18T10:17:04.767Z,621.1667
2023-04-18T10:18:08.727Z,632.5000
2023-04-18T10:19:13.109Z,632.3333
2023-04-18T10:20:17.226Z,635.7500
2023-04-18T10:21:21.181Z,636.0833
2023-04-18T10:22:25.116Z,633.2500
2023-04-18T10:23:29.055Z,642.4167
2023-04-18T10:24:33.092Z,650.8333
2023-04-18T10:25:37.110Z,654.1667
2023-04-18T10:26:41.061Z,654.6667
2023-04-18T10:27:45.335Z,667.5833
2023-04-18T10:28:49.295Z,675.0000
2023-04-18T10:29:53.275Z,681.0000
2023-04-18T10:30:57.404Z,690.9167
2023-04-18T10:32:01.393Z,695.5000
2023-04-18T10:33:08.494Z,696.4167
2023-04-18T10:34:09.847Z,700.1818
2023-04-18T10:35:13.832Z,716.7500
2023-04-18T10:36:17.805Z,725.5000
2023-04-18T10:37:21.808Z,733.3333
2023-04-18T10:38:25.834Z,737.5000
2023-04-18T10:39:29.777Z,726.9167
2023-04-18T10:40:33.781Z,709.5000
2023-04-18T10:41:37.754Z,692.1667
2023-04-18T10:42:41.748Z,697.6667
2023-04-18T10:43:45.648Z,691.1667
2023-04-18T10:44:49.897Z,688.0000
2023-04-18T10:45:53.917Z,685.9167
2023-04-18T10:46:57.864Z,685.0000
2023-04-18T10:47:58.343Z,698.2727
2023-04-18T10:49:02.248Z,702.1667
2023-04-18T10:50:06.968Z,679.1667
2023-04-18T10:51:11.075Z,654.0000
2023-04-18T10:52:15.037Z,665.5000
2023-04-18T10:53:18.986Z,670.0000
2023-04-18T10:54:22.975Z,642.3333
2023-04-18T10:55:27.103Z,631.7500
2023-04-18T10:56:31.115Z,635.7500
2023-04-18T10:57:35.247Z,639.8333
2023-04-18T10:58:39.147Z,633.0000
2023-04-18T10:59:43.102Z,631.7500
2023-04-18T11:00:47.121Z,623.4167
2023-04-18T11:01:51.026Z,620.5833
2023-04-18T11:02:55.190Z,619.8333
2023-04-18T11:03:59.297Z,626.8333
2023-04-18T11:05:03.299Z,650.3333
2023-04-18T11:06:07.239Z,674.6667
2023-04-18T11:07:11.788Z,684.5833
2023-04-18T11:08:15.838Z,669.0833
2023-04-18T11:09:19.795Z,669.3333
2023-04-18T11:10:23.902Z,666.9167
2023-04-18T11:11:27.828Z,646.7500
2023-04-18T11:12:31.782Z,647.7500
2023-04-18T11:13:35.771Z,655.8333
2023-04-18T11:14:39.824Z,662.3333
2023-04-18T11:15:43.783Z,667.9167
2023-04-18T11:16:47.858Z,681.5000
2023-04-18T11:17:51.907Z,683.5833
2023-04-18T11:18:55.888Z,683.9167
2023-04-18T11:19:59.927Z,686.1667
2023-04-18T11:21:03.951Z,698.3333
2023-04-18T11:22:07.906Z,700.3333
2023-04-18T11:23:11.944Z,693.1667
2023-04-18T11:24:16.039Z,687.5000
2023-04-18T11:25:20.147Z,698.3333
2023-04-18T11:26:24.217Z,714.8333
2023-04-18T11:27:28.163Z,714.6667
2023-04-18T11:28:32.167Z,713.0000
2023-04-18T11:29:36.468Z,732.5833
2023-04-18T11:30:40.361Z,744.0000
2023-04-18T11:31:44.378Z,743.9167
2023-04-18T11:32:48.354Z,742.7500
2023-04-18T11:33:52.287Z,745.2500
2023-04-18T11:34:56.268Z,762.6667
2023-04-18T11:36:00.288Z,758.0000
2023-04-18T11:37:04.213Z,733.1667
2023-04-18T11:38:08.157Z,728.5833
2023-04-18T11:39:12.117Z,720.0000
2023-04-18T11:40:16.277Z,694.4167
2023-04-18T11:41:20.242Z,687.8333
2023-04-18T11:42:24.457Z,685.0833
2023-04-18T11:43:28.352Z,680.6667
2023-04-18T11:44:33.764Z,668.8333
2023-04-18T11:45:34.096Z,657.2727
2023-04-18T11:46:38.368Z,664.0000
2023-04-18T11:47:42.579Z,665.1667
2023-04-18T11:48:46.499Z,654.8333
2023-04-18T11:49:50.509Z,649.6667
2023-04-18T11:50:54.465Z,640.5000
2023-04-18T11:51:58.627Z,633.2500
2023-04-18T11:53:02.537Z,635.5833
2023-04-18T11:54:06.465Z,636.9167
2023-04-18T11:55:10.660Z,633.6667
2023-04-18T11:56:14.585Z,629.5833
2023-04-18T11:57:18.523Z,630.9167
2023-04-18T11:58:22.461Z,640.9167
2023-04-18T11:59:26.400Z,641.0000
2023-04-18T12:00:30.383Z,632.0833
2023-04-18T12:01:34.281Z,621.0833
2023-04-18T12:02:38.472Z,616.5000
2023-04-18T12:03:42.669Z,613.4167
2023-04-18T12:04:47.037Z,601.0833
2023-04-18T12:05:51.370Z,609.5000
2023-04-18T12:06:55.393Z,613.0000
2023-04-18T12:07:59.291Z,613.7500
2023-04-18T12:09:03.193Z,616.1667
2023-04-18T12:10:07.370Z,623.1667
2023-04-18T12:11:11.320Z,615.0833
2023-04-18T12:12:15.275Z,608.8333
2023-04-18T12:13:19.238Z,613.6667
2023-04-18T12:14:23.292Z,626.8333
2023-04-18T12:15:27.304Z,611.8333
2023-04-18T12:16:31.295Z,602.5833
2023-04-18T12:17:35.275Z,599.1667
2023-04-18T12:18:39.271Z,608.6667
2023-04-18T12:19:43.132Z,618.4167
2023-04-18T12:20:47.105Z,627.5000
2023-04-18T12:21:51.050Z,628.7500
2023-04-18T12:22:55.052Z,639.0833
2023-04-18T12:23:58.979Z,635.3333
2023-04-18T12:25:02.885Z,627.0000
2023-04-18T12:26:06.816Z,626.4167
2023-04-18T12:27:11.025Z,616.1667
2023-04-18T12:28:14.975Z,616.5833
2023-04-18T12:29:19.292Z,625.5833
2023-04-18T12:30:23.187Z,625.3333
2023-04-18T12:31:27.214Z,618.6667